createdAt,value
2019-01-29T00:01:05.620Z,99679.55
2019-01-29T00:03:35.110Z,99682.76
2019-01-29T00:06:04.921Z,99692.06
2019-01-29T00:08:34.398Z,99690.92
2019-01-29T00:11:03.967Z,99687.22
2019-01-29T00:13:33.447Z,99685.02
2019-01-29T00:16:02.933Z,99686.23
2019-01-29T00:18:32.407Z,99691.77
2019-01-29T00:21:01.892Z,99694.05
2019-01-29T00:23:31.359Z,99693.80
2019-01-29T00:26:00.870Z,99685.45
2019-01-29T00:28:30.349Z,99685.45
2019-01-29T00:30:59.844Z,99696.31
2019-01-29T00:33:29.319Z,99702.39
2019-01-29T00:35:58.816Z,99709.70
2019-01-29T00:38:28.309Z,99703.20
2019-01-29T00:40:57.804Z,99706.18
2019-01-29T00:43:27.297Z,99704.53
2019-01-29T00:45:56.777Z,99704.77
2019-01-29T00:48:26.260Z,99712.62
2019-01-29T00:50:55.804Z,99714.59
2019-01-29T00:53:25.366Z,99715.31
2019-01-29T00:55:54.840Z,99720.61
2019-01-29T00:58:24.324Z,99716.52
2019-01-29T01:00:53.875Z,99717.17
2019-01-29T01:03:23.367Z,99716.48
2019-01-29T01:05:52.843Z,99720.36
2019-01-29T01:08:22.353Z,99720.39
2019-01-29T01:10:51.843Z,99730.28
2019-01-29T01:13:21.333Z,99731.55
2019-01-29T01:15:50.813Z,99731.55
2019-01-29T01:18:20.309Z,99751.77
2019-01-29T01:20:49.791Z,99746.50
2019-01-29T01:23:19.273Z,99754.81
2019-01-29T01:25:48.761Z,99761.20
2019-01-29T01:28:18.249Z,99756.62
2019-01-29T01:30:47.727Z,99760.55
2019-01-29T01:33:17.233Z,99758.02
2019-01-29T01:35:46.724Z,99761.66
2019-01-29T01:38:16.220Z,99769.88
2019-01-29T01:40:45.714Z,99776.05
2019-01-29T01:43:16.172Z,99770.75
2019-01-29T01:45:45.654Z,99779.01
2019-01-29T01:48:15.139Z,99784.36
2019-01-29T01:50:44.611Z,99792.31
2019-01-29T01:53:14.090Z,99795.25
2019-01-29T01:55:43.664Z,99781.72
2019-01-29T01:58:13.156Z,99784.62
2019-01-29T02:00:42.649Z,99784.36
2019-01-29T02:03:12.148Z,99787.64
2019-01-29T02:05:41.628Z,99779.32
2019-01-29T02:08:11.216Z,99789.25
2019-01-29T02:10:40.720Z,99791.00
2019-01-29T02:13:10.208Z,99793.83
2019-01-29T02:15:39.699Z,99793.36
2019-01-29T02:18:09.181Z,99792.97
2019-01-29T02:20:38.659Z,99794.29
2019-01-29T02:23:09.209Z,99798.02
2019-01-29T02:25:38.710Z,99799.73
2019-01-29T02:28:08.195Z,99801.98
2019-01-29T02:30:37.683Z,99815.05
2019-01-29T02:33:07.156Z,99810.73
2019-01-29T02:35:36.633Z,99809.34
2019-01-29T02:38:06.105Z,99810.30
2019-01-29T02:40:35.591Z,99815.77
2019-01-29T02:43:05.134Z,99814.64
2019-01-29T02:45:34.616Z,99815.69
2019-01-29T02:48:04.160Z,99814.87
2019-01-29T02:50:33.662Z,99817.57
2019-01-29T02:53:03.127Z,99821.64
2019-01-29T02:55:32.616Z,99820.09
2019-01-29T02:58:02.090Z,99824.02
2019-01-29T03:00:31.577Z,99819.41
2019-01-29T03:03:01.058Z,99821.79
2019-01-29T03:05:30.607Z,99825.03
2019-01-29T03:08:00.090Z,99832.23
2019-01-29T03:10:29.586Z,99839.39
2019-01-29T03:12:59.065Z,99839.38
2019-01-29T03:15:31.085Z,99846.59
2019-01-29T03:18:00.635Z,99846.67
2019-01-29T03:20:30.195Z,99848.09
2019-01-29T03:22:59.745Z,99854.63
2019-01-29T03:25:29.233Z,99853.33
2019-01-29T03:27:58.762Z,99850.44
2019-01-29T03:30:28.349Z,99848.14
2019-01-29T03:32:57.819Z,99862.56
2019-01-29T03:35:27.362Z,99871.27
2019-01-29T03:37:56.827Z,99871.17
2019-01-29T03:40:27.775Z,99871.48
2019-01-29T03:42:57.255Z,99869.97
2019-01-29T03:45:26.746Z,99873.08
2019-01-29T03:47:56.205Z,99878.70
2019-01-29T03:50:25.774Z,99870.64
2019-01-29T03:52:55.244Z,99882.56
2019-01-29T03:55:24.737Z,99880.02
2019-01-29T03:57:54.226Z,99878.77
2019-01-29T04:00:25.687Z,99881.08
2019-01-29T04:02:55.342Z,99877.96
2019-01-29T04:05:24.896Z,99869.40
2019-01-29T04:07:55.405Z,99874.23
2019-01-29T04:10:24.972Z,99874.17
2019-01-29T04:12:54.443Z,99869.88
2019-01-29T04:15:24.271Z,99872.87
2019-01-29T04:17:56.729Z,99870.30
2019-01-29T04:20:27.878Z,99872.00
2019-01-29T04:22:57.615Z,99865.43
2019-01-29T04:25:27.208Z,99872.37
2019-01-29T04:27:56.699Z,99869.72
2019-01-29T04:30:26.168Z,99865.14
2019-01-29T04:32:55.645Z,99874.31
2019-01-29T04:35:25.214Z,99871.42
2019-01-29T04:37:54.742Z,99872.44
2019-01-29T04:40:24.284Z,99873.02
2019-01-29T04:42:53.858Z,99869.58
2019-01-29T04:45:23.345Z,99874.77
2019-01-29T04:47:52.863Z,99871.19
2019-01-29T04:50:23.266Z,99880.91
2019-01-29T04:52:52.858Z,99878.33
2019-01-29T04:55:22.404Z,99882.20
2019-01-29T04:57:51.885Z,99884.62
2019-01-29T05:00:23.482Z,99879.88
2019-01-29T05:02:53.050Z,99883.15
2019-01-29T05:05:24.972Z,99882.41
2019-01-29T05:07:54.465Z,99880.80
2019-01-29T05:10:24.025Z,99885.93
2019-01-29T05:12:53.515Z,99882.14
2019-01-29T05:15:23.117Z,99882.14
2019-01-29T05:17:52.658Z,99884.81
2019-01-29T05:20:22.768Z,99888.38
2019-01-29T05:22:52.340Z,99893.11
2019-01-29T05:25:21.907Z,99891.79
2019-01-29T05:27:51.465Z,99890.67
2019-01-29T05:30:23.167Z,99890.70
2019-01-29T05:32:52.726Z,99895.08
2019-01-29T05:35:22.295Z,99909.80
2019-01-29T05:37:51.936Z,99909.80
2019-01-29T05:40:22.793Z,99908.41
2019-01-29T05:42:52.445Z,99896.08
2019-01-29T05:45:23.028Z,99916.55
2019-01-29T05:47:53.658Z,99910.30
2019-01-29T05:50:23.200Z,99908.91
2019-01-29T05:52:52.783Z,99912.34
2019-01-29T05:55:22.407Z,99914.80
2019-01-29T05:57:51.902Z,99914.45
2019-01-29T06:00:25.096Z,99921.41
2019-01-29T06:02:54.598Z,99915.35
2019-01-29T06:05:24.522Z,99928.00
2019-01-29T06:07:54.015Z,99923.84
2019-01-29T06:10:23.526Z,99916.39
2019-01-29T06:12:53.175Z,99927.47
2019-01-29T06:15:22.733Z,99921.62
2019-01-29T06:17:52.301Z,99928.52
2019-01-29T06:20:23.160Z,99924.95
2019-01-29T06:22:52.701Z,99924.98
2019-01-29T06:25:22.205Z,99923.16
2019-01-29T06:27:51.701Z,99929.41
2019-01-29T06:30:21.623Z,99922.61
2019-01-29T06:32:51.248Z,99930.36
2019-01-29T06:35:20.806Z,99926.83
2019-01-29T06:37:50.524Z,99930.46
2019-01-29T06:40:22.077Z,99935.19
2019-01-29T06:42:51.598Z,99939.36
2019-01-29T06:45:21.468Z,99930.53
2019-01-29T06:47:51.424Z,99863.83
2019-01-29T06:50:22.834Z,99938.95
2019-01-29T06:52:52.415Z,99943.01
2019-01-29T06:55:22.345Z,99942.72
2019-01-29T06:57:55.643Z,99939.50
2019-01-29T07:00:27.933Z,99938.72
2019-01-29T07:02:58.044Z,99948.42
2019-01-29T07:05:27.610Z,99939.09
2019-01-29T07:07:57.186Z,99944.30
2019-01-29T07:10:27.279Z,99946.42
2019-01-29T07:12:56.861Z,99945.10
2019-01-29T07:15:45.005Z,99947.28
2019-01-29T07:18:33.691Z,99948.80
2019-01-29T07:21:05.920Z,99952.95
2019-01-29T07:23:35.390Z,99957.47
2019-01-29T07:26:05.248Z,99959.02
2019-01-29T07:28:34.734Z,99962.27
2019-01-29T07:31:04.691Z,99965.41
2019-01-29T07:33:34.172Z,99968.25
2019-01-29T07:36:03.668Z,99968.59
2019-01-29T07:38:33.228Z,99972.14
2019-01-29T07:41:02.718Z,99969.69
2019-01-29T07:43:32.243Z,99968.50
2019-01-29T07:46:01.712Z,99965.70
2019-01-29T07:48:31.194Z,99963.20
2019-01-29T07:51:00.670Z,99972.66
2019-01-29T07:53:30.150Z,99971.42
2019-01-29T07:55:59.623Z,99970.89
2019-01-29T07:58:29.090Z,99969.87
2019-01-29T08:00:58.566Z,99972.16
2019-01-29T08:03:28.063Z,99973.00
2019-01-29T08:05:57.540Z,99975.63
2019-01-29T08:08:27.010Z,99970.81
2019-01-29T08:10:56.489Z,99977.02
2019-01-29T08:13:26.044Z,99977.02
2019-01-29T08:15:55.527Z,99983.02
2019-01-29T08:18:25.007Z,99984.22
2019-01-29T08:20:54.557Z,99982.86
2019-01-29T08:23:24.049Z,99988.47
2019-01-29T08:25:53.790Z,99990.75
2019-01-29T08:28:23.255Z,99996.16
2019-01-29T08:30:52.737Z,99996.36
2019-01-29T08:33:22.217Z,99996.59
2019-01-29T08:35:51.792Z,99995.56
2019-01-29T08:38:21.270Z,99997.98
2019-01-29T08:40:50.928Z,100000.73
2019-01-29T08:43:20.402Z,99999.09
2019-01-29T08:45:49.975Z,99995.00
2019-01-29T08:48:19.457Z,99998.61
2019-01-29T08:50:49.021Z,99999.71
2019-01-29T08:53:18.490Z,99997.16
2019-01-29T08:55:47.985Z,100001.31
2019-01-29T08:58:17.474Z,100003.98
2019-01-29T09:00:46.981Z,100000.89
2019-01-29T09:03:16.473Z,100001.70
2019-01-29T09:05:45.964Z,100001.32
2019-01-29T09:08:15.452Z,100005.30
2019-01-29T09:10:44.946Z,100008.23
2019-01-29T09:13:14.437Z,100009.88
2019-01-29T09:15:43.933Z,100009.32
2019-01-29T09:18:13.417Z,100003.95
2019-01-29T09:20:43.886Z,100005.63
2019-01-29T09:23:13.367Z,99995.89
2019-01-29T09:25:42.874Z,99995.73
2019-01-29T09:28:12.382Z,99996.45
2019-01-29T09:30:41.863Z,99994.94
2019-01-29T09:33:11.595Z,99994.84
2019-01-29T09:35:41.089Z,99989.52
2019-01-29T09:38:10.566Z,99990.30
2019-01-29T09:40:40.058Z,99991.09
2019-01-29T09:43:09.548Z,99987.83
2019-01-29T09:45:39.071Z,99990.91
2019-01-29T09:48:08.562Z,99989.28
2019-01-29T09:50:38.033Z,99987.16
2019-01-29T09:53:07.526Z,99987.86
2019-01-29T09:55:37.020Z,99980.23
2019-01-29T09:58:06.501Z,99975.23
2019-01-29T10:00:37.484Z,99978.59
2019-01-29T10:03:07.313Z,99974.50
2019-01-29T10:05:36.814Z,99978.16
2019-01-29T10:08:07.142Z,99972.33
2019-01-29T10:10:36.702Z,99967.15
2019-01-29T10:13:06.271Z,99970.13
2019-01-29T10:15:36.241Z,99964.30
2019-01-29T10:18:05.884Z,99970.79
2019-01-29T10:20:35.629Z,99960.97
2019-01-29T10:23:05.505Z,99965.02
2019-01-29T10:25:37.917Z,99957.63
2019-01-29T10:28:06.252Z,99965.84
2019-01-29T10:30:35.729Z,99967.70
2019-01-29T10:33:05.304Z,99962.85
2019-01-29T10:35:34.804Z,99971.17
2019-01-29T10:38:04.373Z,99976.64
2019-01-29T10:40:33.854Z,99971.44
2019-01-29T10:43:03.346Z,99970.00
2019-01-29T10:45:32.909Z,99979.78
2019-01-29T10:48:02.403Z,99975.32
2019-01-29T10:50:32.468Z,99974.35
2019-01-29T10:53:02.099Z,99974.02
2019-01-29T10:55:31.640Z,99965.26
2019-01-29T10:58:01.310Z,99961.45
2019-01-29T11:00:36.852Z,99960.67
2019-01-29T11:03:07.399Z,99959.95
2019-01-29T11:05:37.050Z,99961.33
2019-01-29T11:08:07.626Z,99965.75
2019-01-29T11:10:37.163Z,99965.66
2019-01-29T11:13:07.407Z,99959.43
2019-01-29T11:15:39.006Z,99958.86
2019-01-29T11:18:11.193Z,99948.84
2019-01-29T11:20:40.756Z,99947.12
2019-01-29T11:23:10.400Z,99948.36
2019-01-29T11:25:40.074Z,99948.76
2019-01-29T11:28:09.647Z,99944.73
2019-01-29T11:30:39.220Z,99941.88
2019-01-29T11:33:08.809Z,99938.42
2019-01-29T11:35:38.304Z,99933.77
2019-01-29T11:38:08.007Z,99937.83
2019-01-29T11:40:37.644Z,99939.15
2019-01-29T11:43:07.487Z,99937.42
2019-01-29T11:45:39.454Z,99931.16
2019-01-29T11:48:09.057Z,99934.11
2019-01-29T11:50:38.643Z,99927.16
2019-01-29T11:53:08.193Z,99920.00
2019-01-29T11:55:37.692Z,99924.58
2019-01-29T11:58:07.464Z,99928.77
2019-01-29T12:00:41.336Z,99923.13
2019-01-29T12:03:10.904Z,99926.84
2019-01-29T12:05:40.388Z,99923.75
2019-01-29T12:08:10.091Z,99923.00
2019-01-29T12:10:39.651Z,99926.06
2019-01-29T12:13:09.226Z,99921.94
2019-01-29T12:15:38.863Z,99914.64
2019-01-29T12:18:08.525Z,99914.46
2019-01-29T12:20:38.087Z,99896.98
2019-01-29T12:23:07.657Z,99896.98
2019-01-29T12:25:37.252Z,99911.23
2019-01-29T12:28:06.851Z,99905.48
2019-01-29T12:30:36.493Z,99901.44
2019-01-29T12:33:07.814Z,99899.02
2019-01-29T12:35:37.360Z,99891.19
2019-01-29T12:38:06.944Z,99891.91
2019-01-29T12:40:37.102Z,99881.11
2019-01-29T12:43:06.788Z,99887.84
2019-01-29T12:45:36.353Z,99884.19
2019-01-29T12:48:05.925Z,99884.27
2019-01-29T12:50:35.494Z,99882.34
2019-01-29T12:53:16.983Z,99880.52
2019-01-29T12:55:46.575Z,99882.62
2019-01-29T12:58:16.095Z,99882.67
2019-01-29T13:00:57.024Z,99878.46
2019-01-29T13:03:26.518Z,99815.92
2019-01-29T13:05:56.109Z,99861.17
2019-01-29T13:08:25.684Z,99864.54
2019-01-29T13:10:55.207Z,99862.13
2019-01-29T13:13:24.769Z,99855.70
2019-01-29T13:15:54.271Z,99849.42
2019-01-29T13:18:23.776Z,99851.00
2019-01-29T13:20:53.390Z,99848.68
2019-01-29T13:23:22.910Z,99849.02
2019-01-29T13:25:52.489Z,99844.20
2019-01-29T13:28:22.065Z,99842.45
2019-01-29T13:30:51.646Z,99842.45
2019-01-29T13:33:22.178Z,99842.73
2019-01-29T13:35:52.628Z,99842.46
2019-01-29T13:38:22.111Z,99842.36
2019-01-29T13:40:51.683Z,99844.30
2019-01-29T13:43:21.157Z,99844.48
2019-01-29T13:45:50.718Z,99842.86
2019-01-29T13:48:20.280Z,99840.79
2019-01-29T13:50:53.573Z,99838.78
2019-01-29T13:53:23.115Z,99837.45
2019-01-29T13:55:52.638Z,99833.91
2019-01-29T13:58:22.309Z,99834.51
2019-01-29T14:00:51.858Z,99831.63
2019-01-29T14:03:21.529Z,99829.16
2019-01-29T14:05:51.030Z,99827.03
2019-01-29T14:08:20.557Z,99828.41
2019-01-29T14:10:50.132Z,99818.79
2019-01-29T14:13:19.630Z,99820.86
2019-01-29T14:15:54.319Z,99817.56
2019-01-29T14:18:25.858Z,99816.60
2019-01-29T14:20:55.387Z,99808.34
2019-01-29T14:23:25.005Z,99802.01
2019-01-29T14:25:54.591Z,99803.28
2019-01-29T14:28:24.184Z,99801.00
2019-01-29T14:30:53.715Z,99798.33
2019-01-29T14:33:23.351Z,99795.68
2019-01-29T14:35:52.934Z,99798.58
2019-01-29T14:39:06.117Z,99791.48
2019-01-29T14:41:37.279Z,99791.28
2019-01-29T14:44:10.037Z,99790.09
2019-01-29T14:46:39.535Z,99785.97
2019-01-29T14:49:09.059Z,99781.95
2019-01-29T14:51:38.554Z,99781.05
2019-01-29T14:54:08.344Z,99777.10
2019-01-29T14:56:37.841Z,99779.48
2019-01-29T14:59:08.429Z,99777.45
2019-01-29T15:01:38.008Z,99781.45
2019-01-29T15:04:07.541Z,99773.04
2019-01-29T15:06:37.041Z,99772.17
2019-01-29T15:09:12.133Z,99769.95
2019-01-29T15:11:41.653Z,99771.31
2019-01-29T15:14:11.199Z,99770.24
2019-01-29T15:16:59.994Z,99767.34
2019-01-29T15:19:30.863Z,99764.55
2019-01-29T15:22:00.352Z,99759.31
2019-01-29T15:24:29.873Z,99758.00
2019-01-29T15:27:05.383Z,99756.95
2019-01-29T15:29:30.552Z,99758.16
2019-01-29T15:32:00.041Z,99757.86
2019-01-29T15:34:29.518Z,99757.70
2019-01-29T15:36:59.001Z,99753.95
2019-01-29T15:39:28.476Z,99749.86
2019-01-29T15:41:57.968Z,99748.09
2019-01-29T15:44:27.443Z,99741.62
2019-01-29T15:46:56.928Z,99740.35
2019-01-29T15:49:26.405Z,99740.80
2019-01-29T15:51:55.893Z,99740.29
2019-01-29T15:54:25.362Z,99741.70
2019-01-29T15:56:54.849Z,99737.80
2019-01-29T15:59:24.329Z,99734.16
2019-01-29T16:01:53.812Z,99736.95
2019-01-29T16:04:23.291Z,99729.95
2019-01-29T16:06:52.780Z,99732.37
2019-01-29T16:09:22.263Z,99728.66
2019-01-29T16:11:51.748Z,99721.09
2019-01-29T16:14:21.232Z,99716.89
2019-01-29T16:16:50.721Z,99718.20
2019-01-29T16:19:20.197Z,99719.09
2019-01-29T16:21:49.684Z,99712.00
2019-01-29T16:24:19.168Z,99713.31
2019-01-29T16:26:48.654Z,99712.86
2019-01-29T16:29:18.136Z,99711.30
2019-01-29T16:31:47.620Z,99709.79
2019-01-29T16:34:17.095Z,99708.82
2019-01-29T16:36:46.590Z,99704.18
2019-01-29T16:39:16.060Z,99699.72
2019-01-29T16:41:45.547Z,99700.10
2019-01-29T16:44:15.025Z,99704.43
2019-01-29T16:46:44.517Z,99700.19
2019-01-29T16:49:13.994Z,99696.84
2019-01-29T16:51:43.476Z,99687.78
2019-01-29T16:54:12.952Z,99691.94
2019-01-29T16:56:42.436Z,99692.14
2019-01-29T16:59:11.916Z,99688.59
2019-01-29T17:01:41.418Z,99687.14
2019-01-29T17:04:11.042Z,99684.61
2019-01-29T17:06:40.536Z,99678.48
2019-01-29T17:09:12.141Z,99680.66
2019-01-29T17:11:41.697Z,99678.58
2019-01-29T17:14:11.196Z,99674.14
2019-01-29T17:16:40.693Z,99676.67
2019-01-29T17:19:10.190Z,99670.23
2019-01-29T17:21:39.688Z,99668.83
2019-01-29T17:24:09.175Z,99673.22
2019-01-29T17:26:38.649Z,99675.98
2019-01-29T17:29:08.227Z,99668.85
2019-01-29T17:31:37.730Z,99667.41
2019-01-29T17:34:07.240Z,99665.98
2019-01-29T17:36:36.720Z,99660.25
2019-01-29T17:39:08.278Z,99666.27
2019-01-29T17:41:37.748Z,99663.29
2019-01-29T17:44:07.348Z,99659.78
2019-01-29T17:46:36.884Z,99658.63
2019-01-29T17:49:06.458Z,99659.72
2019-01-29T17:51:36.018Z,99663.55
2019-01-29T17:54:05.666Z,99660.92
2019-01-29T17:56:35.165Z,99651.52
2019-01-29T17:59:04.791Z,99655.00
2019-01-29T18:01:34.540Z,99653.00
2019-01-29T18:04:04.120Z,99653.40
2019-01-29T18:06:33.607Z,99656.84
2019-01-29T18:09:03.883Z,99642.92
2019-01-29T18:11:34.332Z,99648.68
2019-01-29T18:14:04.422Z,99648.61
2019-01-29T18:16:33.898Z,99649.03
2019-01-29T18:19:03.393Z,99644.73
2019-01-29T18:21:32.866Z,99639.80
2019-01-29T18:24:02.352Z,99640.60
2019-01-29T18:26:31.830Z,99635.93
2019-01-29T18:29:01.318Z,99637.58
2019-01-29T18:31:30.797Z,99627.55
2019-01-29T18:34:00.284Z,99626.97
2019-01-29T18:36:29.763Z,99628.36
2019-01-29T18:38:59.245Z,99629.22
2019-01-29T18:41:28.742Z,99628.46
2019-01-29T18:43:58.238Z,99626.22
2019-01-29T18:46:27.725Z,99625.91
2019-01-29T18:48:57.215Z,99619.95
2019-01-29T18:51:26.693Z,99621.44
2019-01-29T18:53:56.214Z,99620.89
2019-01-29T18:56:25.706Z,99616.66
2019-01-29T18:58:55.220Z,99618.20
2019-01-29T19:01:24.712Z,99608.45
2019-01-29T19:03:54.233Z,99613.50
2019-01-29T19:06:23.726Z,99608.33
2019-01-29T19:08:53.980Z,99609.70
2019-01-29T19:11:23.625Z,99612.34
2019-01-29T19:13:53.197Z,99610.03
2019-01-29T19:16:22.717Z,99607.91
2019-01-29T19:18:52.208Z,99609.23
2019-01-29T19:21:22.736Z,99603.39
2019-01-29T19:23:52.243Z,99609.40
2019-01-29T19:26:21.750Z,99598.34
2019-01-29T19:28:51.235Z,99592.69
2019-01-29T19:31:20.739Z,99592.97
2019-01-29T19:33:50.211Z,99594.61
2019-01-29T19:36:19.692Z,99591.38
2019-01-29T19:38:49.257Z,99589.03
2019-01-29T19:41:18.794Z,99587.65
2019-01-29T19:43:48.312Z,99591.91
2019-01-29T19:46:17.795Z,99590.72
2019-01-29T19:48:47.316Z,99585.67
2019-01-29T19:51:16.892Z,99584.52
2019-01-29T19:53:46.485Z,99579.40
2019-01-29T19:56:16.013Z,99583.98
2019-01-29T19:58:45.587Z,99582.03
2019-01-29T20:01:15.078Z,99581.87
2019-01-29T20:03:44.598Z,99580.66
2019-01-29T20:06:14.079Z,99587.23
2019-01-29T20:08:43.611Z,99582.73
2019-01-29T20:11:13.193Z,99581.99
2019-01-29T20:13:42.668Z,99582.80
2019-01-29T20:16:12.404Z,99585.33
2019-01-29T20:18:41.833Z,99587.40
2019-01-29T20:21:11.348Z,99578.55
2019-01-29T20:23:41.342Z,99570.11
2019-01-29T20:26:11.087Z,99573.39
2019-01-29T20:28:42.595Z,99574.13
2019-01-29T20:31:11.841Z,99576.13
2019-01-29T20:33:41.327Z,99570.06
2019-01-29T20:36:10.866Z,99567.53
2019-01-29T20:38:40.371Z,99561.73
2019-01-29T20:41:09.959Z,99563.11
2019-01-29T20:43:39.539Z,99558.13
2019-01-29T20:46:09.126Z,99550.95
2019-01-29T20:48:38.601Z,99545.91
2019-01-29T20:51:08.180Z,99543.33
2019-01-29T20:53:37.671Z,99534.38
2019-01-29T20:56:07.300Z,99539.02
2019-01-29T20:58:36.894Z,99532.92
2019-01-29T21:01:06.487Z,99530.52
2019-01-29T21:03:36.003Z,99521.30
2019-01-29T21:06:05.604Z,99525.08
2019-01-29T21:08:35.082Z,99525.47
2019-01-29T21:11:04.926Z,99524.32
2019-01-29T21:13:34.518Z,99523.56
2019-01-29T21:16:04.075Z,99523.82
2019-01-29T21:18:33.577Z,99524.09
2019-01-29T21:21:03.150Z,99520.13
2019-01-29T21:23:32.661Z,99517.25
2019-01-29T21:26:02.235Z,99522.94
2019-01-29T21:28:31.729Z,99517.09
2019-01-29T21:31:01.253Z,99516.83
2019-01-29T21:33:30.773Z,99517.32
2019-01-29T21:36:00.268Z,99520.27
2019-01-29T21:38:29.795Z,99514.42
2019-01-29T21:40:59.314Z,99517.14
2019-01-29T21:43:28.931Z,99513.80
2019-01-29T21:45:58.500Z,99517.36
2019-01-29T21:48:28.033Z,99520.05
2019-01-29T21:50:57.648Z,99522.27
2019-01-29T21:53:27.313Z,99517.12
2019-01-29T21:55:56.789Z,99519.01
2019-01-29T21:58:26.380Z,99514.57
2019-01-29T22:00:55.867Z,99511.86
2019-01-29T22:03:25.352Z,99512.30
2019-01-29T22:05:54.846Z,99513.89
2019-01-29T22:08:24.337Z,99510.53
2019-01-29T22:10:53.883Z,99502.55
2019-01-29T22:13:23.492Z,99506.27
2019-01-29T22:15:53.020Z,99497.83
2019-01-29T22:18:22.533Z,99488.27
2019-01-29T22:20:52.031Z,99486.27
2019-01-29T22:23:21.526Z,99484.69
2019-01-29T22:25:51.098Z,99483.19
2019-01-29T22:28:20.597Z,99480.05
2019-01-29T22:30:50.135Z,99473.50
2019-01-29T22:33:20.413Z,99470.69
2019-01-29T22:35:49.992Z,99471.66
2019-01-29T22:38:19.853Z,99458.20
2019-01-29T22:40:49.329Z,99459.92
2019-01-29T22:43:18.820Z,99464.45
2019-01-29T22:45:48.291Z,99459.11
2019-01-29T22:48:17.780Z,99460.42
2019-01-29T22:50:47.276Z,99453.23
2019-01-29T22:53:16.775Z,99445.07
2019-01-29T22:55:46.266Z,99440.43
2019-01-29T22:58:15.767Z,99443.83
2019-01-29T23:01:17.028Z,99440.11
2019-01-29T23:03:49.523Z,99446.31
2019-01-29T23:06:33.246Z,99443.54
2019-01-29T23:09:03.266Z,99441.88
2019-01-29T23:11:33.727Z,99440.77
2019-01-29T23:14:03.218Z,99441.47
2019-01-29T23:16:32.685Z,99433.84
2019-01-29T23:19:02.171Z,99427.52
2019-01-29T23:21:31.694Z,99435.54
2019-01-29T23:24:01.167Z,99430.22
2019-01-29T23:26:31.709Z,99440.58
2019-01-29T23:29:01.182Z,99430.52
2019-01-29T23:31:30.724Z,99427.72
2019-01-29T23:34:00.293Z,99429.33
2019-01-29T23:36:29.773Z,99421.30
2019-01-29T23:38:59.249Z,99419.08
2019-01-29T23:41:28.715Z,99417.88
2019-01-29T23:43:58.190Z,99410.36
2019-01-29T23:46:27.670Z,99401.52
2019-01-29T23:48:57.167Z,99401.52
2019-01-29T23:51:26.642Z,99400.70
2019-01-29T23:53:56.200Z,99400.70
2019-01-29T23:56:25.736Z,99396.06
2019-01-29T23:58:55.215Z,99388.91
